Time;durP1;ratioP1;P1;durP2;ratioP2;P2;SDS_P1;SDS_P2;PMS_P1;PMS_P2;Temp;Humidity;BMP_temperature;BMP_pressure;BME280_temperature;BME280_humidity;BME280_pressure;Samples;Min_cycle;Max_cycle;Signal;HPM_P1;HPM_P2
2021/12/27 00:01:38;;;;;;;128.68;37.65;;;;;;;-15.91;75.85;98915.45;2148630;83;20971;-60
2021/12/27 00:04:38;;;;;;;141.80;43.92;;;;;;;-15.88;76.01;98913.06;2105532;84;21004;-58
2021/12/27 00:07:38;;;;;;;106.50;34.08;;;;;;;-15.95;76.13;98921.97;2152382;82;21652;-57
2021/12/27 00:10:39;;;;;;;156.07;54.08;;;;;;;-15.94;76.29;98922.85;2135116;83;20996;-58
2021/12/27 00:13:39;;;;;;;111.07;38.33;;;;;;;-16.02;76.14;98921.63;2155303;82;20983;-59
2021/12/27 00:16:40;;;;;;;119.45;38.65;;;;;;;-15.89;76.62;98917.63;2135107;83;21033;-57
2021/12/27 00:19:40;;;;;;;110.77;33.53;;;;;;;-15.61;76.36;98907.12;2155144;83;20963;-63
2021/12/27 00:22:41;;;;;;;95.57;27.90;;;;;;;-15.42;76.15;98906.66;2135034;83;21081;-59
2021/12/27 00:25:41;;;;;;;113.28;30.08;;;;;;;-15.30;75.54;98901.30;2154880;83;21513;-63
2021/12/27 00:28:42;;;;;;;103.05;32.78;;;;;;;-15.22;75.21;98898.71;2135364;83;21579;-60
2021/12/27 00:31:42;;;;;;;104.00;29.77;;;;;;;-15.16;75.52;98898.96;2155228;83;20967;-63
2021/12/27 00:34:42;;;;;;;91.30;30.37;;;;;;;-15.17;75.11;98899.37;2135267;83;21004;-63
2021/12/27 00:37:43;;;;;;;89.30;26.70;;;;;;;-15.09;75.05;98906.38;2154853;83;21047;-59
2021/12/27 00:40:43;;;;;;;94.97;27.20;;;;;;;-15.30;75.20;98900.88;2135074;83;21010;-57
2021/12/27 00:43:44;;;;;;;74.83;22.70;;;;;;;-15.47;75.52;98909.36;2155078;83;21474;-61
2021/12/27 00:46:44;;;;;;;93.15;26.20;;;;;;;-15.71;75.41;98920.93;2134476;83;21535;-63
2021/12/27 00:49:45;;;;;;;90.62;29.10;;;;;;;-15.85;75.69;98914.86;2154834;83;21481;-58
2021/12/27 00:52:46;;;;;;;105.90;32.80;;;;;;;-15.95;75.70;98911.92;2135057;83;21077;-61
2021/12/27 00:55:46;;;;;;;90.13;30.57;;;;;;;-16.00;75.84;98911.24;2155346;83;21337;-59
2021/12/27 00:58:47;;;;;;;97.50;34.33;;;;;;;-16.01;76.01;98909.13;2135182;83;21055;-58
2021/12/27 01:01:47;;;;;;;106.77;33.73;;;;;;;-15.89;76.63;98922.23;2155048;83;21078;-62
2021/12/27 01:04:48;;;;;;;116.60;38.47;;;;;;;-15.61;76.55;98910.89;2135198;83;21004;-58
2021/12/27 01:07:48;;;;;;;137.70;41.50;;;;;;;-15.49;76.38;98913.07;2150587;82;21007;-61
2021/12/27 01:11:01;;;;;;;148.53;44.03;;;;;;;-15.41;75.89;98910.50;2131640;84;21563;-62
2021/12/27 01:16:53;;;;;;;113.40;35.45;;;;;;;-15.55;75.45;98904.86;2105331;84;21092;-59
2021/12/27 01:19:54;;;;;;;115.85;36.83;;;;;;;-15.69;75.21;98910.53;2148379;83;21062;-60
2021/12/27 01:22:54;;;;;;;111.13;36.03;;;;;;;-15.67;75.73;98908.11;2131631;84;21484;-60
2021/12/27 01:25:55;;;;;;;105.65;32.20;;;;;;;-15.58;75.50;98904.73;2148152;83;20979;-61
2021/12/27 01:28:56;;;;;;;93.40;33.07;;;;;;;-15.63;75.33;98914.13;2131706;84;21024;-62
2021/12/27 01:31:57;;;;;;;103.42;31.75;;;;;;;-15.78;75.25;98910.13;2147996;83;20975;-57
2021/12/27 01:34:57;;;;;;;150.78;42.38;;;;;;;-15.89;75.51;98910.08;2131433;84;21586;-60
2021/12/27 01:37:59;;;;;;;201.70;59.38;;;;;;;-15.98;75.62;98904.65;2147714;83;21534;-63
2021/12/27 01:40:59;;;;;;;200.07;60.60;;;;;;;-16.07;75.80;98893.38;2131383;84;21049;-60
2021/12/27 01:43:59;;;;;;;147.13;44.20;;;;;;;-16.06;76.18;98890.08;2148499;83;20980;-59
2021/12/27 01:47:00;;;;;;;114.83;39.30;;;;;;;-15.94;76.18;98891.03;2131789;84;20985;-59
2021/12/27 01:50:01;;;;;;;104.97;33.53;;;;;;;-15.89;76.00;98890.81;2147972;83;21039;-58
2021/12/27 01:53:01;;;;;;;97.00;31.57;;;;;;;-15.87;75.82;98897.20;2131652;84;21552;-59
2021/12/27 01:56:02;;;;;;;101.65;34.55;;;;;;;-15.87;75.76;98888.41;2148234;83;21046;-58
2021/12/27 01:59:02;;;;;;;114.67;34.43;;;;;;;-15.95;75.70;98898.09;2131683;84;21000;-57
2021/12/27 02:02:02;;;;;;;101.90;32.43;;;;;;;-15.96;75.65;98901.80;2148312;83;21059;-57
2021/12/27 02:05:03;;;;;;;97.42;31.45;;;;;;;-16.02;75.51;98903.63;2131405;84;21012;-60
2021/12/27 02:08:03;;;;;;;105.53;31.73;;;;;;;-16.03;75.70;98908.19;2148014;83;21091;-57
2021/12/27 02:11:04;;;;;;;97.13;31.47;;;;;;;-16.00;75.67;98903.33;2131631;84;21463;-57
2021/12/27 02:14:04;;;;;;;117.17;38.25;;;;;;;-15.97;75.57;98902.20;2147979;83;21519;-58
2021/12/27 02:17:05;;;;;;;110.60;32.13;;;;;;;-16.05;75.68;98900.58;2131764;84;20992;-58
2021/12/27 02:20:05;;;;;;;101.27;31.73;;;;;;;-16.02;75.83;98894.84;2148070;83;21030;-58
2021/12/27 02:23:10;;;;;;;107.17;31.83;;;;;;;-16.01;75.66;98893.20;2131609;84;21032;-56
2021/12/27 02:26:08;;;;;;;116.73;35.95;;;;;;;-15.97;75.87;98894.66;2120242;83;20980;-57
2021/12/27 02:29:09;;;;;;;118.67;35.13;;;;;;;-15.91;76.26;98888.64;2131778;84;21020;-58
2021/12/27 02:32:10;;;;;;;100.58;28.90;;;;;;;-15.76;76.36;98883.80;2148106;83;20959;-60
2021/12/27 02:35:10;;;;;;;106.32;32.17;;;;;;;-15.76;76.31;98885.91;2131537;84;21115;-58
2021/12/27 02:38:11;;;;;;;109.20;29.67;;;;;;;-15.69;75.96;98883.28;2148165;83;21531;-59
2021/12/27 02:41:12;;;;;;;92.62;27.45;;;;;;;-15.67;75.25;98883.34;2131633;84;20996;-60
2021/12/27 02:44:12;;;;;;;77.50;24.67;;;;;;;-15.81;74.85;98878.61;2147831;83;21051;-58
2021/12/27 02:47:13;;;;;;;89.97;26.50;;;;;;;-16.01;74.93;98884.00;2131415;84;21088;-56
2021/12/27 02:50:13;;;;;;;108.30;29.50;;;;;;;-16.15;75.20;98884.62;2148333;83;21050;-58
2021/12/27 02:53:13;;;;;;;103.07;30.88;;;;;;;-16.27;75.39;98876.14;2131381;84;21020;-58
2021/12/27 02:56:14;;;;;;;91.73;28.70;;;;;;;-16.30;76.10;98881.02;2148225;83;21454;-58
2021/12/27 02:59:15;;;;;;;113.93;35.17;;;;;;;-16.28;76.77;98876.07;2131742;84;21501;-56
2021/12/27 03:02:16;;;;;;;91.23;27.70;;;;;;;-16.29;76.76;98878.11;2148417;83;20988;-57
2021/12/27 03:05:17;;;;;;;93.75;29.07;;;;;;;-16.33;76.75;98871.22;2131517;84;20949;-57
2021/12/27 03:08:17;;;;;;;94.47;30.20;;;;;;;-16.35;76.55;98876.58;2148152;83;21044;-59
2021/12/27 03:11:18;;;;;;;98.75;27.73;;;;;;;-16.24;77.44;98880.04;2131816;84;21009;-61
2021/12/27 03:14:20;;;;;;;103.63;31.10;;;;;;;-16.19;76.90;98881.91;2147961;83;20971;-62
2021/12/27 03:17:20;;;;;;;101.07;30.30;;;;;;;-16.13;76.76;98875.89;2105649;84;20981;-60
2021/12/27 03:20:21;;;;;;;94.43;27.47;;;;;;;-16.18;76.16;98871.08;2148194;83;20995;-58
2021/12/27 03:23:22;;;;;;;90.20;28.67;;;;;;;-16.23;76.14;98873.35;2131478;84;21044;-61
2021/12/27 03:26:22;;;;;;;91.07;28.57;;;;;;;-16.31;76.36;98865.88;2148637;83;20979;-61
2021/12/27 03:29:23;;;;;;;106.27;30.65;;;;;;;-16.40;76.53;98856.28;2131764;84;21041;-63
2021/12/27 03:32:24;;;;;;;111.50;29.33;;;;;;;-16.29;76.93;98855.50;2148522;83;21028;-58
2021/12/27 03:35:27;;;;;;;103.87;29.13;;;;;;;-16.23;76.67;98854.51;2131664;84;20996;-61
2021/12/27 03:38:27;;;;;;;110.00;29.00;;;;;;;-16.04;76.79;98844.92;2120027;83;21019;-59
2021/12/27 03:41:27;;;;;;;100.73;27.70;;;;;;;-16.06;76.35;98848.99;2131974;84;21036;-58
2021/12/27 03:44:28;;;;;;;101.78;29.15;;;;;;;-16.20;76.31;98849.66;2148104;83;21087;-62
2021/12/27 03:47:28;;;;;;;85.10;27.37;;;;;;;-16.22;77.31;98847.08;2131341;84;21912;-59
2021/12/27 03:50:29;;;;;;;96.30;27.45;;;;;;;-16.14;77.33;98839.88;2148365;83;21023;-61
2021/12/27 03:53:29;;;;;;;100.77;30.53;;;;;;;-16.09;77.55;98845.09;2131653;84;21492;-61
2021/12/27 03:56:31;;;;;;;86.53;26.42;;;;;;;-15.99;77.20;98840.94;2148602;83;20967;-60
2021/12/27 04:02:37;;;;;;;100.90;28.57;;;;;;;-15.90;77.45;98834.20;2119979;83;20983;-62
2021/12/27 04:05:36;;;;;;;79.45;24.70;;;;;;;-15.72;78.01;98838.73;2105776;84;21519;-61
2021/12/27 04:08:36;;;;;;;73.87;22.27;;;;;;;-15.55;78.97;98839.88;2152414;83;20980;-62
2021/12/27 04:11:37;;;;;;;84.40;25.17;;;;;;;-15.31;80.35;98837.91;2135433;83;20984;-61
2021/12/27 04:14:37;;;;;;;74.72;25.57;;;;;;;-15.05;79.93;98847.83;2154570;83;21094;-62
2021/12/27 04:17:38;;;;;;;76.87;23.00;;;;;;;-14.95;79.27;98844.88;2135381;83;21016;-61
2021/12/27 04:20:38;;;;;;;75.25;24.90;;;;;;;-14.80;78.14;98841.25;2154728;83;20998;-62
2021/12/27 04:23:39;;;;;;;69.87;22.70;;;;;;;-14.91;78.10;98845.47;2135175;83;21567;-58
2021/12/27 04:26:39;;;;;;;70.57;22.90;;;;;;;-14.94;79.18;98845.31;2154781;83;21527;-57
2021/12/27 04:29:40;;;;;;;73.67;22.35;;;;;;;-14.90;80.15;98842.54;2135444;83;21001;-57
2021/12/27 04:32:40;;;;;;;71.47;23.95;;;;;;;-14.76;80.64;98846.47;2155139;83;20982;-57
2021/12/27 04:35:41;;;;;;;68.87;22.10;;;;;;;-14.69;80.59;98836.25;2135483;83;20992;-56
2021/12/27 04:38:42;;;;;;;70.10;24.93;;;;;;;-14.71;81.16;98836.19;2154921;83;20979;-58
2021/12/27 04:41:43;;;;;;;71.53;23.18;;;;;;;-14.65;80.31;98834.28;2134869;83;21083;-57
2021/12/27 04:44:43;;;;;;;66.00;23.80;;;;;;;-14.60;80.48;98839.08;2154690;83;21524;-59
2021/12/27 04:47:44;;;;;;;70.30;23.00;;;;;;;-14.43;81.18;98843.93;2134848;83;21311;-57
2021/12/27 04:50:44;;;;;;;70.20;22.70;;;;;;;-14.25;81.17;98843.75;2154896;83;20979;-58
2021/12/27 04:53:45;;;;;;;78.90;24.75;;;;;;;-14.09;81.62;98847.70;2135071;83;21024;-58
2021/12/27 04:56:46;;;;;;;78.62;24.23;;;;;;;-13.89;82.02;98852.22;2154837;83;21070;-58
2021/12/27 04:59:47;;;;;;;;;;;;;;;-13.69;81.98;98855.47;2137393;83;21482;-58
2021/12/27 05:02:47;;;;;;;74.77;23.00;;;;;;;-13.59;82.00;98858.77;2135069;83;20142;-57
2021/12/27 05:05:48;;;;;;;69.58;25.88;;;;;;;-13.41;82.23;98857.31;2154968;83;21007;-58
2021/12/27 05:08:50;;;;;;;70.08;22.20;;;;;;;-13.25;82.21;98859.92;2134653;83;21113;-58
2021/12/27 05:11:50;;;;;;;69.95;22.50;;;;;;;-13.09;82.44;98856.25;2155105;83;21510;-58
2021/12/27 05:14:51;;;;;;;69.37;25.32;;;;;;;-12.92;82.79;98850.08;2134930;83;20980;-57
2021/12/27 05:17:51;;;;;;;71.60;23.67;;;;;;;-12.79;82.85;98850.08;2154921;83;21023;-59
2021/12/27 05:20:52;;;;;;;74.45;21.80;;;;;;;-12.65;83.16;98847.16;2134754;83;21032;-58
2021/12/27 05:23:52;;;;;;;61.50;21.00;;;;;;;-12.53;84.19;98843.73;2154775;83;21533;-58
2021/12/27 05:26:52;;;;;;;64.40;20.68;;;;;;;-12.41;84.41;98844.13;2134931;83;20977;-58
2021/12/27 05:29:53;;;;;;;66.12;22.13;;;;;;;-12.30;84.38;98836.85;2154783;83;21011;-58
2021/12/27 05:32:53;;;;;;;63.95;21.45;;;;;;;-12.20;84.69;98824.93;2134919;83;21590;-58
2021/12/27 05:35:54;;;;;;;63.63;19.95;;;;;;;-12.09;84.45;98834.53;2154687;83;21030;-57
2021/12/27 05:38:54;;;;;;;59.40;19.73;;;;;;;-11.99;84.78;98839.04;2134878;83;21004;-58
2021/12/27 05:41:55;;;;;;;59.45;20.80;;;;;;;-11.85;84.26;98837.73;2154748;83;21063;-59
2021/12/27 05:44:55;;;;;;;69.10;20.12;;;;;;;-11.73;84.49;98843.95;2135016;83;21005;-57
2021/12/27 05:47:56;;;;;;;63.33;19.90;;;;;;;-11.60;85.16;98838.41;2154778;83;21030;-57
2021/12/27 05:50:56;;;;;;;54.73;18.25;;;;;;;-11.48;85.54;98829.02;2134865;83;21020;-57
2021/12/27 05:53:57;;;;;;;54.15;18.10;;;;;;;-11.39;85.84;98830.55;2154641;83;21515;-61
2021/12/27 05:56:57;;;;;;;55.25;19.85;;;;;;;-11.30;85.53;98827.78;2134999;83;21004;-60
2021/12/27 05:59:57;;;;;;;55.28;19.57;;;;;;;-11.18;86.24;98830.65;2154873;83;21027;-60
2021/12/27 06:02:58;;;;;;;63.52;20.32;;;;;;;-11.11;86.16;98836.32;2134889;83;21020;-61
2021/12/27 06:05:58;;;;;;;62.53;19.55;;;;;;;-11.01;86.54;98840.80;2154705;83;21039;-59
2021/12/27 06:08:59;;;;;;;53.85;18.92;;;;;;;-10.89;86.05;98834.33;2134818;83;21008;-61
2021/12/27 06:11:59;;;;;;;60.95;18.40;;;;;;;-10.82;86.03;98825.66;2154631;83;21547;-58
2021/12/27 06:15:00;;;;;;;57.48;18.82;;;;;;;-10.73;85.53;98821.61;2135002;83;20988;-62
2021/12/27 06:18:00;;;;;;;53.90;19.32;;;;;;;-10.66;86.01;98820.55;2154887;83;21067;-62
2021/12/27 06:21:01;;;;;;;56.23;18.67;;;;;;;-10.62;85.75;98821.46;2134558;83;21019;-61
2021/12/27 06:24:01;;;;;;;55.35;19.27;;;;;;;-10.56;85.64;98820.75;2154830;83;21015;-59
2021/12/27 06:27:02;;;;;;;59.80;19.82;;;;;;;-10.49;85.86;98815.00;2134587;83;21019;-59
2021/12/27 06:30:03;;;;;;;54.80;20.02;;;;;;;-10.44;85.78;98812.17;2154484;83;21051;-59
2021/12/27 06:33:06;;;;;;;61.48;19.67;;;;;;;-10.37;85.72;98819.09;2135117;83;21020;-57
2021/12/27 06:36:06;;;;;;;;;;;;;;;-10.30;85.53;98820.91;2131376;83;21823;-60
2021/12/27 06:39:08;;;;;;;57.53;19.05;;;;;;;-10.21;85.51;98815.57;2135019;83;20125;-60
2021/12/27 06:42:09;;;;;;;51.18;16.82;;;;;;;-10.19;85.64;98822.82;2154713;83;21486;-60
2021/12/27 06:45:09;;;;;;;53.98;18.42;;;;;;;-10.19;85.83;98825.36;2135135;83;20964;-60
2021/12/27 06:48:10;;;;;;;62.10;19.90;;;;;;;-10.16;85.81;98830.49;2155134;83;21007;-61
2021/12/27 06:51:10;;;;;;;52.45;19.05;;;;;;;-10.10;86.06;98829.34;2135232;83;20961;-60
2021/12/27 06:54:11;;;;;;;54.80;19.20;;;;;;;-10.10;85.71;98827.69;2155075;83;21043;-60
2021/12/27 06:57:11;;;;;;;57.62;19.70;;;;;;;-10.02;86.05;98819.38;2135094;83;21013;-60
2021/12/27 07:00:12;;;;;;;51.10;17.67;;;;;;;-9.96;85.77;98814.00;2154488;83;21006;-61
2021/12/27 07:03:14;;;;;;;55.65;19.37;;;;;;;-9.84;85.80;98810.01;2135042;83;21491;-60
2021/12/27 07:06:14;;;;;;;;;;;;;;;-9.79;85.77;98802.93;2131024;83;20975;-58
2021/12/27 07:09:15;;;;;;;54.27;18.50;;;;;;;-9.74;85.77;98810.63;2134969;83;20392;-57
2021/12/27 07:12:15;;;;;;;53.78;19.20;;;;;;;-9.64;85.73;98814.22;2154780;83;20999;-58
2021/12/27 07:15:16;;;;;;;61.25;19.82;;;;;;;-9.59;86.50;98812.63;2134987;83;21108;-58
2021/12/27 07:18:22;;;;;;;59.95;20.68;;;;;;;-9.51;86.01;98816.19;2154780;83;21015;-58
2021/12/27 07:21:19;;;;;;;;;;;;;;;-9.44;86.09;98819.28;2113342;83;21531;-58
2021/12/27 07:24:19;;;;;;;61.92;21.17;;;;;;;-9.31;85.73;98815.29;2135058;83;20113;-58
2021/12/27 07:27:20;;;;;;;63.68;20.10;;;;;;;-9.19;85.55;98812.11;2154606;83;21135;-57
2021/12/27 07:30:20;;;;;;;59.73;20.70;;;;;;;-9.09;85.28;98814.41;2135015;83;21475;-58
2021/12/27 07:33:20;;;;;;;53.33;20.17;;;;;;;-8.99;85.18;98810.30;2154895;83;21541;-60
2021/12/27 07:36:21;;;;;;;52.60;17.65;;;;;;;-8.93;85.16;98820.17;2135273;83;21008;-58
2021/12/27 07:39:21;;;;;;;51.37;16.90;;;;;;;-8.89;85.01;98813.05;2154933;83;21031;-58
2021/12/27 07:42:22;;;;;;;55.78;18.62;;;;;;;-8.79;85.27;98812.78;2135093;83;21020;-59
2021/12/27 07:45:22;;;;;;;52.10;17.45;;;;;;;-8.75;85.02;98822.18;2154843;82;20971;-59
2021/12/27 07:48:23;;;;;;;57.10;19.02;;;;;;;-8.65;84.80;98818.07;2135010;83;21008;-57
2021/12/27 07:51:23;;;;;;;51.98;19.07;;;;;;;-8.51;84.67;98813.21;2154892;83;21531;-59
2021/12/27 07:54:24;;;;;;;60.90;21.25;;;;;;;-8.38;84.39;98806.16;2134815;83;21040;-58
2021/12/27 07:57:25;;;;;;;51.85;18.35;;;;;;;-8.20;84.27;98793.28;2155118;83;20979;-57
2021/12/27 08:00:25;;;;;;;54.77;19.48;;;;;;;-8.11;83.92;98795.09;2134997;83;20996;-57
2021/12/27 08:03:26;;;;;;;49.93;18.07;;;;;;;-8.05;83.50;98784.55;2154404;83;21007;-58
2021/12/27 08:06:26;;;;;;;51.30;18.67;;;;;;;-7.98;83.38;98791.86;2134997;83;21532;-58
2021/12/27 08:09:27;;;;;;;49.93;19.05;;;;;;;-7.98;83.19;98789.74;2154629;83;21145;-60
2021/12/27 08:12:28;;;;;;;55.48;19.05;;;;;;;-7.95;82.99;98780.44;2134862;83;20977;-57
2021/12/27 08:15:28;;;;;;;50.88;18.55;;;;;;;-7.87;82.95;98776.73;2154940;83;21078;-57
2021/12/27 08:18:29;;;;;;;57.45;18.15;;;;;;;-7.88;82.67;98772.03;2134994;83;20948;-58
2021/12/27 08:21:31;;;;;;;54.50;17.40;;;;;;;-7.86;82.70;98780.97;2154665;83;21039;-57
2021/12/27 08:24:32;;;;;;;58.90;18.90;;;;;;;-7.76;82.84;98784.48;2135215;83;21491;-58
2021/12/27 08:27:32;;;;;;;60.80;19.65;;;;;;;-7.62;82.46;98787.20;2155007;83;21662;-57
2021/12/27 08:30:33;;;;;;;56.85;19.30;;;;;;;-7.53;82.49;98783.47;2135096;83;21385;-58
2021/12/27 08:33:33;;;;;;;57.35;19.15;;;;;;;-7.20;82.59;98779.55;2154923;82;20995;-58
2021/12/27 08:36:33;;;;;;;56.83;18.87;;;;;;;-7.07;81.92;98773.72;2134883;83;21602;-58
2021/12/27 08:39:34;;;;;;;61.73;20.77;;;;;;;-7.01;81.92;98767.42;2154504;83;21509;-58
2021/12/27 08:42:35;;;;;;;53.15;19.92;;;;;;;-6.83;81.68;98767.13;2135010;83;21012;-59
2021/12/27 08:45:37;;;;;;;68.55;23.38;;;;;;;-6.75;81.12;98771.01;2155077;83;21015;-59
2021/12/27 08:48:37;;;;;;;81.85;24.63;;;;;;;-6.66;81.30;98770.66;2134960;83;21096;-59
2021/12/27 08:51:38;;;;;;;72.47;22.62;;;;;;;-6.50;80.69;98768.22;2154957;83;20963;-60
2021/12/27 08:54:38;;;;;;;73.00;23.67;;;;;;;-6.42;80.62;98774.23;2135185;83;20972;-61
2021/12/27 08:57:38;;;;;;;71.45;24.07;;;;;;;-6.39;80.20;98774.25;2154716;83;21051;-59
2021/12/27 09:00:39;;;;;;;73.62;23.20;;;;;;;-6.43;79.78;98771.68;2134934;83;21024;-58
2021/12/27 09:03:39;;;;;;;67.80;22.82;;;;;;;-6.38;80.53;98769.99;2154718;83;21509;-60
2021/12/27 09:06:40;;;;;;;56.83;21.48;;;;;;;-6.41;79.94;98761.89;2134949;83;21515;-59
2021/12/27 09:09:41;;;;;;;61.02;21.30;;;;;;;-6.49;80.22;98765.67;2154478;83;21058;-59
2021/12/27 09:12:41;;;;;;;64.82;22.10;;;;;;;-6.46;79.94;98758.47;2135051;83;20977;-59
2021/12/27 09:15:42;;;;;;;70.00;22.82;;;;;;;-6.55;79.70;98755.84;2154544;83;21058;-59
2021/12/27 09:18:43;;;;;;;64.62;23.20;;;;;;;-6.58;80.25;98747.73;2134944;83;21238;-59
2021/12/27 09:21:43;;;;;;;65.70;21.97;;;;;;;-6.50;80.25;98747.38;2154659;83;21568;-60
2021/12/27 09:24:43;;;;;;;60.03;21.55;;;;;;;-6.42;80.28;98749.11;2134812;83;21108;-59
2021/12/27 09:27:44;;;;;;;62.38;21.55;;;;;;;-6.30;80.21;98741.11;2154844;83;21007;-59
2021/12/27 09:30:44;;;;;;;61.77;20.65;;;;;;;-6.15;80.06;98729.27;2135015;83;21029;-58
2021/12/27 09:33:45;;;;;;;59.55;21.20;;;;;;;-6.09;79.62;98725.48;2154706;83;20979;-60
2021/12/27 09:36:45;;;;;;;59.13;21.55;;;;;;;-6.12;79.14;98721.20;2134911;83;20996;-59
2021/12/27 09:39:53;;;;;;;53.20;20.55;;;;;;;-6.04;79.77;98718.67;2154668;83;21558;-59
2021/12/27 09:42:48;;;;;;;54.30;20.88;;;;;;;-6.08;79.28;98713.13;2110903;83;21039;-59
2021/12/27 09:45:49;;;;;;;66.50;24.50;;;;;;;-5.98;79.99;98718.69;2154765;83;21514;-58
2021/12/27 09:48:49;;;;;;;62.43;22.75;;;;;;;-5.83;80.09;98714.05;2134582;83;20997;-58
2021/12/27 09:51:50;;;;;;;58.90;23.02;;;;;;;-5.59;80.09;98710.70;2154932;83;20947;-59
2021/12/27 09:54:51;;;;;;;70.80;24.83;;;;;;;-5.43;79.88;98703.04;2135299;83;21085;-60
2021/12/27 09:57:51;;;;;;;60.28;23.20;;;;;;;-5.24;79.86;98698.82;2154826;83;20936;-60
2021/12/27 10:00:52;;;;;;;62.93;21.60;;;;;;;-5.03;79.70;98691.55;2135113;83;21464;-58
2021/12/27 10:03:53;;;;;;;58.60;22.55;;;;;;;-4.84;79.43;98688.58;2154739;83;21050;-58
2021/12/27 10:06:53;;;;;;;59.90;21.75;;;;;;;-4.79;78.27;98680.45;2134919;83;21572;-58
2021/12/27 10:09:54;;;;;;;53.75;21.70;;;;;;;-4.90;78.00;98684.31;2154464;82;21084;-59
2021/12/27 10:12:54;;;;;;;57.13;20.95;;;;;;;-5.01;78.49;98681.31;2134891;83;21084;-58
2021/12/27 10:15:55;;;;;;;49.83;20.82;;;;;;;-5.00;78.32;98675.36;2154604;83;20998;-57
2021/12/27 10:18:55;;;;;;;50.75;20.05;;;;;;;-5.09;78.15;98678.77;2134891;83;21041;-58
2021/12/27 10:21:56;;;;;;;54.75;20.15;;;;;;;-5.10;78.82;98676.66;2154466;83;21470;-61
2021/12/27 10:24:57;;;;;;;53.55;19.00;;;;;;;-4.83;79.10;98675.34;2134987;83;21040;-57
2021/12/27 10:27:57;;;;;;;56.98;22.25;;;;;;;-4.66;77.97;98673.59;2154790;83;21087;-58
2021/12/27 10:30:58;;;;;;;55.90;19.67;;;;;;;-4.68;78.42;98674.05;2134841;83;20984;-58
2021/12/27 10:33:59;;;;;;;51.20;18.87;;;;;;;-4.44;77.89;98678.26;2154309;83;21023;-58
2021/12/27 10:37:01;;;;;;;55.55;18.82;;;;;;;-4.26;77.76;98679.05;2110481;83;21008;-57
2021/12/27 10:40:02;;;;;;;50.45;18.32;;;;;;;-4.18;77.69;98682.41;2154750;83;21466;-57
2021/12/27 10:43:03;;;;;;;48.75;18.95;;;;;;;-4.02;77.04;98681.95;2135217;83;21136;-58
2021/12/27 10:46:04;;;;;;;47.62;18.42;;;;;;;-3.88;77.67;98672.89;2154872;83;20982;-59
2021/12/27 10:49:04;;;;;;;49.00;17.67;;;;;;;-3.91;76.85;98672.47;2134859;83;20992;-57
2021/12/27 10:52:05;;;;;;;46.23;19.05;;;;;;;-3.86;76.89;98668.63;2154672;83;21028;-57
2021/12/27 10:55:06;;;;;;;50.03;19.95;;;;;;;-3.88;76.72;98660.95;2135450;83;21412;-58
2021/12/27 10:58:08;;;;;;;53.17;19.73;;;;;;;-3.77;76.87;98658.75;2154864;83;21098;-57
2021/12/27 11:01:08;;;;;;;50.50;18.77;;;;;;;-3.69;77.54;98662.13;2134813;83;20984;-58
2021/12/27 11:04:09;;;;;;;50.85;19.82;;;;;;;-3.61;76.61;98650.09;2154498;83;21634;-58
2021/12/27 11:07:09;;;;;;;45.98;17.48;;;;;;;-3.57;76.38;98656.06;2134755;83;20988;-59
2021/12/27 11:10:10;;;;;;;49.23;18.25;;;;;;;-3.79;75.86;98652.77;2150680;82;20996;-57
2021/12/27 11:13:10;;;;;;;49.95;18.90;;;;;;;-3.95;76.35;98643.03;2131486;84;21037;-56
2021/12/27 11:16:11;;;;;;;47.78;18.00;;;;;;;-4.26;76.29;98639.35;2147837;83;20960;-58
2021/12/27 11:19:11;;;;;;;50.10;18.07;;;;;;;-4.49;76.35;98633.05;2131347;84;21032;-57
2021/12/27 11:22:12;;;;;;;48.38;18.10;;;;;;;-4.71;77.09;98627.98;2148017;83;21458;-58
2021/12/27 11:25:12;;;;;;;53.65;19.90;;;;;;;-4.81;77.05;98627.56;2131228;84;21040;-58
2021/12/27 11:28:12;;;;;;;45.98;19.37;;;;;;;-4.85;77.66;98622.89;2148164;83;20924;-59
2021/12/27 11:31:13;;;;;;;49.33;19.17;;;;;;;-4.82;77.80;98613.92;2131335;84;21039;-58
2021/12/27 11:34:14;;;;;;;58.83;20.15;;;;;;;-4.88;77.88;98616.06;2147827;83;21055;-58
2021/12/27 11:37:14;;;;;;;52.17;19.45;;;;;;;-4.78;78.35;98608.38;2131360;84;21080;-59
2021/12/27 11:40:15;;;;;;;51.88;20.17;;;;;;;-4.68;78.24;98610.47;2147814;83;21011;-58
2021/12/27 11:43:16;;;;;;;52.58;18.98;;;;;;;-4.66;77.87;98608.77;2131387;84;20984;-58
2021/12/27 11:46:16;;;;;;;60.90;21.23;;;;;;;-4.70;77.95;98607.50;2148282;83;20951;-58
2021/12/27 11:49:16;;;;;;;57.20;19.92;;;;;;;-4.74;78.08;98601.97;2131613;84;20949;-59
2021/12/27 11:52:17;;;;;;;49.67;19.75;;;;;;;-4.52;78.49;98596.77;2148137;83;21057;-60
2021/12/27 11:55:21;;;;;;;48.20;18.37;;;;;;;-4.43;78.12;98584.36;2131400;84;20989;-58
2021/12/27 11:58:20;;;;;;;49.73;18.48;;;;;;;-4.20;78.39;98579.95;2120439;83;20959;-59
2021/12/27 12:01:21;;;;;;;54.38;19.07;;;;;;;-3.87;78.11;98576.77;2131334;84;21036;-58
2021/12/27 12:04:21;;;;;;;58.17;20.48;;;;;;;-3.64;77.93;98577.48;2148330;83;20971;-59
2021/12/27 12:07:22;;;;;;;51.70;17.90;;;;;;;-3.33;77.51;98568.66;2131523;84;20989;-60
2021/12/27 12:10:22;;;;;;;51.45;18.98;;;;;;;-3.22;76.53;98563.45;2147824;83;20999;-60
2021/12/27 12:13:23;;;;;;;48.42;17.48;;;;;;;-3.10;77.18;98565.03;2131475;84;21090;-61
2021/12/27 12:16:23;;;;;;;50.98;19.20;;;;;;;-3.03;77.44;98550.00;2148140;83;21606;-61
2021/12/27 12:19:24;;;;;;;49.30;17.67;;;;;;;-2.92;76.94;98542.61;2131350;84;21000;-61
2021/12/27 12:22:24;;;;;;;50.10;18.02;;;;;;;-2.82;76.95;98534.77;2148310;83;21027;-61
2021/12/27 12:25:25;;;;;;;46.15;17.20;;;;;;;-2.81;76.83;98540.33;2131308;84;21051;-61
2021/12/27 12:28:25;;;;;;;43.48;16.65;;;;;;;-2.72;76.74;98537.24;2147800;83;21115;-60
2021/12/27 12:31:26;;;;;;;45.60;16.80;;;;;;;-2.70;76.47;98534.21;2131432;84;21020;-60
2021/12/27 12:34:27;;;;;;;43.70;16.97;;;;;;;-2.69;76.70;98534.63;2147817;83;20980;-61
2021/12/27 12:37:27;;;;;;;46.63;18.30;;;;;;;-2.88;76.86;98545.56;2131348;84;21048;-60
2021/12/27 12:40:27;;;;;;;37.90;14.85;;;;;;;-2.99;77.24;98550.38;2148076;83;21494;-60
2021/12/27 12:43:28;;;;;;;36.38;14.10;;;;;;;-3.20;76.81;98547.59;2131460;84;21614;-60
2021/12/27 12:46:30;;;;;;;41.85;14.95;;;;;;;-3.50;77.48;98535.47;2148323;83;20959;-60
2021/12/27 12:49:31;;;;;;;45.25;15.13;;;;;;;-3.68;78.10;98543.31;2131463;84;20961;-60
2021/12/27 12:52:31;;;;;;;39.83;14.25;;;;;;;-3.88;78.70;98530.66;2148120;83;20986;-60
2021/12/27 12:55:32;;;;;;;39.92;14.93;;;;;;;-3.99;79.21;98537.16;2131523;84;21096;-60
2021/12/27 12:58:32;;;;;;;46.50;15.08;;;;;;;-4.01;79.66;98535.89;2148106;83;21007;-60
2021/12/27 13:01:33;;;;;;;46.60;16.80;;;;;;;-3.97;79.90;98539.27;2131672;84;21012;-63
2021/12/27 13:04:33;;;;;;;42.25;15.43;;;;;;;-3.87;80.10;98538.33;2148159;83;21078;-60
2021/12/27 13:07:34;;;;;;;44.30;16.50;;;;;;;-3.85;80.07;98537.03;2131451;84;21146;-60
2021/12/27 13:10:34;;;;;;;43.52;16.23;;;;;;;-3.87;80.12;98538.33;2147847;83;20996;-60
2021/12/27 13:13:34;;;;;;;47.23;18.50;;;;;;;-3.83;80.40;98543.86;2131449;84;21083;-60
2021/12/27 13:16:35;;;;;;;42.00;15.68;;;;;;;-3.77;80.47;98551.09;2148030;83;20967;-60
2021/12/27 13:19:36;;;;;;;44.88;16.67;;;;;;;-3.84;80.32;98552.40;2131100;83;21498;-60
2021/12/27 13:22:36;;;;;;;40.58;15.05;;;;;;;-3.92;80.50;98563.16;2148154;83;21023;-61
2021/12/27 13:25:37;;;;;;;38.95;14.78;;;;;;;-4.03;80.66;98558.09;2131461;84;20985;-60
2021/12/27 13:28:39;;;;;;;40.23;15.43;;;;;;;-4.13;80.95;98555.61;2148272;83;20983;-60
2021/12/27 13:31:42;;;;;;;;;;;;;;;-4.20;81.16;98553.06;2133929;84;21559;-61
2021/12/27 13:34:42;;;;;;;44.65;14.93;;;;;;;-4.32;81.45;98542.03;2129321;84;20398;-61
2021/12/27 13:37:44;;;;;;;43.30;16.15;;;;;;;-4.50;82.11;98535.32;2147972;83;20984;-61
2021/12/27 13:40:44;;;;;;;39.53;15.08;;;;;;;-4.63;82.30;98536.64;2105840;84;21507;-60
2021/12/27 13:43:45;;;;;;;36.30;13.60;;;;;;;-4.82;82.93;98532.48;2148105;83;20975;-61
2021/12/27 13:46:45;;;;;;;40.98;14.60;;;;;;;-4.98;83.07;98540.20;2131540;84;21025;-60
2021/12/27 13:49:46;;;;;;;38.85;13.20;;;;;;;-5.05;83.45;98538.52;2147788;83;21008;-61
2021/12/27 13:52:46;;;;;;;47.45;16.35;;;;;;;-5.16;83.67;98536.41;2131420;84;21041;-59